Clarks Hill, South Carolina
Current Conditions -  °F | °C
As of 5:53 PM on Wednesday 17 Dec 2014 (Local Time) from KDNL Reporting Station
Clear Clear  
Wind Chill: 58°   Ceiling: Unl
Heat Index: 58°   Visibility: 10mi
Dew Point: 40°   Wind: 5mph
Humidity: 51%   Direction: 300°WNW
Pressure: 30.11"   Gusts: NA
Location:  33.67°N, 82.17°W
Report Text: KDNL 172253Z AUTO 30004KT 10SM CLR 14/04 A3011 RMK AO2 SLP194 T01440044
Loading
Personal Weather Stations






























Interactive Weather Map New forecast layout! Learn more

10-Day Weather Forecast

Advertisements
Track Severe Weather on mobile